Time;durP1;ratioP1;P1;durP2;ratioP2;P2;SDS_P1;SDS_P2;PMS_P1;PMS_P2;Temp;Humidity;BMP_temperature;BMP_pressure;BME280_temperature;BME280_humidity;BME280_pressure;Samples;Min_cycle;Max_cycle;Signal;HPM_P1;HPM_P2
2022/12/26 00:01:24;;;;;;;5.70;3.50;;;11.80;75.70;;;;;;5049806;28;20184;-78
2022/12/26 00:03:50;;;;;;;6.17;3.53;;;11.80;75.70;;;;;;5049143;28;20212;-78
2022/12/26 00:06:19;;;;;;;4.93;3.50;;;11.80;75.70;;;;;;5052931;28;20945;-76
2022/12/26 00:08:46;;;;;;;4.60;3.50;;;11.80;75.50;;;;;;5053688;28;20216;-75
2022/12/26 00:11:12;;;;;;;5.50;3.47;;;11.90;75.50;;;;;;5053882;28;20549;-76
2022/12/26 00:13:41;;;;;;;5.20;3.40;;;11.90;75.50;;;;;;5053606;28;20454;-76
2022/12/26 00:16:11;;;;;;;6.97;3.10;;;11.90;75.50;;;;;;5046463;28;20454;-76
2022/12/26 00:18:37;;;;;;;6.03;3.70;;;11.90;75.50;;;;;;5048131;28;20411;-78
2022/12/26 00:21:03;;;;;;;8.53;4.00;;;11.80;75.70;;;;;;5046747;28;20422;-78
2022/12/26 00:23:31;;;;;;;4.53;3.40;;;11.80;75.90;;;;;;5040874;28;20467;-76
2022/12/26 00:26:02;;;;;;;5.27;3.40;;;11.70;76.20;;;;;;5050936;28;20434;-77
2022/12/26 00:28:27;;;;;;;5.67;4.20;;;11.70;76.20;;;;;;5051085;28;20419;-76
2022/12/26 00:30:53;;;;;;;6.60;3.73;;;11.60;76.20;;;;;;5048690;28;20528;-76
2022/12/26 00:33:19;;;;;;;6.60;3.67;;;11.60;76.20;;;;;;5050061;28;20204;-76
2022/12/26 00:35:44;;;;;;;6.17;3.93;;;11.60;76.50;;;;;;5053320;28;20644;-76
2022/12/26 00:38:10;;;;;;;5.27;3.40;;;11.50;76.50;;;;;;5053867;28;20642;-77
2022/12/26 00:40:35;;;;;;;3.83;3.37;;;11.50;76.50;;;;;;5045706;28;20192;-76
2022/12/26 00:43:01;;;;;;;6.37;3.60;;;11.50;76.50;;;;;;5051348;28;20299;-77
2022/12/26 00:45:26;;;;;;;5.27;3.50;;;11.50;76.70;;;;;;5049897;28;20189;-77
2022/12/26 00:47:52;;;;;;;5.80;3.90;;;11.40;76.70;;;;;;5050839;28;20246;-76
2022/12/26 00:50:17;;;;;;;4.07;3.47;;;11.30;76.80;;;;;;5052294;28;20295;-75
2022/12/26 00:52:43;;;;;;;5.40;3.23;;;11.40;77.00;;;;;;5050551;28;20209;-75
2022/12/26 00:55:09;;;;;;;4.47;3.80;;;11.40;77.00;;;;;;5048663;28;20180;-76
2022/12/26 00:57:35;;;;;;;5.27;4.00;;;11.40;77.00;;;;;;5051897;28;20551;-76
2022/12/26 01:00:00;;;;;;;5.07;3.40;;;11.30;77.00;;;;;;5049514;28;20476;-76
2022/12/26 01:02:38;;;;;;;4.20;3.10;;;11.30;77.30;;;;;;5045159;28;20208;-76
2022/12/26 01:05:09;;;;;;;6.47;3.50;;;11.30;77.40;;;;;;5050238;28;20659;-76
2022/12/26 01:07:36;;;;;;;8.30;3.97;;;11.20;77.60;;;;;;5050875;28;20475;-76
2022/12/26 01:10:04;;;;;;;4.27;3.40;;;11.20;77.70;;;;;;5042459;28;20427;-75
2022/12/26 01:12:30;;;;;;;5.10;2.87;;;11.20;77.80;;;;;;5049023;28;20487;-76
2022/12/26 01:14:59;;;;;;;6.50;3.50;;;11.10;78.30;;;;;;5047865;28;20430;-76
2022/12/26 01:17:26;;;;;;;6.50;3.40;;;11.10;78.40;;;;;;5050881;28;21063;-77
2022/12/26 01:19:52;;;;;;;4.80;3.40;;;11.10;78.90;;;;;;5045657;28;20581;-76
2022/12/26 01:22:17;;;;;;;5.03;3.07;;;11.00;78.90;;;;;;5048682;28;20546;-77
2022/12/26 01:24:43;;;;;;;4.80;3.03;;;11.00;79.00;;;;;;5051673;28;20195;-77
2022/12/26 01:27:09;;;;;;;5.13;3.77;;;11.00;79.30;;;;;;5051535;28;20200;-77
2022/12/26 01:29:34;;;;;;;5.13;3.40;;;11.00;79.50;;;;;;5051351;28;20195;-76
2022/12/26 01:32:00;;;;;;;9.70;4.03;;;10.90;79.50;;;;;;5049916;28;20219;-75
2022/12/26 01:34:26;;;;;;;6.40;3.20;;;10.90;79.60;;;;;;5048657;28;20184;-76
2022/12/26 01:36:52;;;;;;;8.47;3.63;;;11.00;79.70;;;;;;5044470;28;20677;-77
2022/12/26 01:39:18;;;;;;;5.07;3.10;;;11.00;79.60;;;;;;5051142;28;20184;-75
2022/12/26 01:41:43;;;;;;;4.93;3.40;;;11.00;79.50;;;;;;5051542;28;20768;-75
2022/12/26 01:44:46;;;;;;;4.00;2.90;;;11.00;79.60;;;;;;5047949;28;20314;-77
2022/12/26 01:47:13;;;;;;;4.17;3.20;;;10.90;79.60;;;;;;5049318;28;20203;-76
2022/12/26 01:49:42;;;;;;;8.40;3.70;;;11.00;79.70;;;;;;5050798;28;20457;-77
2022/12/26 01:52:16;;;;;;;5.23;2.90;;;10.90;79.70;;;;;;5047836;28;20544;-75
2022/12/26 01:54:47;;;;;;;4.93;3.30;;;10.90;79.70;;;;;;5047240;28;20455;-77
2022/12/26 01:57:20;;;;;;;6.40;3.60;;;10.90;79.70;;;;;;5042074;28;20498;-76
2022/12/26 01:59:49;;;;;;;6.07;3.83;;;11.00;79.70;;;;;;5038954;28;20446;-76
2022/12/26 02:02:16;;;;;;;5.20;3.30;;;10.90;79.70;;;;;;5039846;28;20450;-76
2022/12/26 02:07:33;;;;;;;6.03;3.70;;;10.90;79.70;;;;;;5050543;28;20411;-77
2022/12/26 02:09:59;;;;;;;4.97;3.27;;;11.00;79.60;;;;;;5050418;28;20429;-75
2022/12/26 02:12:29;;;;;;;4.70;3.23;;;11.10;79.50;;;;;;5049331;28;20458;-77
2022/12/26 02:14:56;;;;;;;5.03;3.23;;;11.10;79.30;;;;;;5050672;28;20453;-76
2022/12/26 02:17:23;;;;;;;5.37;3.60;;;11.10;79.20;;;;;;5049446;28;20430;-76
2022/12/26 02:20:04;;;;;;;4.57;2.90;;;11.10;79.30;;;;;;5050621;28;20408;-76
2022/12/26 02:22:46;;;;;;;5.47;3.30;;;11.10;79.00;;;;;;5048291;28;20863;-76
2022/12/26 02:25:33;;;;;;;5.50;3.23;;;11.20;79.20;;;;;;5050707;28;20557;-77
2022/12/26 02:28:36;;;;;;;4.10;3.07;;;11.20;79.20;;;;;;5045828;28;20778;-76
2022/12/26 02:31:49;;;;;;;9.23;3.33;;;11.20;79.50;;;;;;5051023;28;20581;-77
2022/12/26 02:34:32;;;;;;;8.50;4.50;;;11.10;79.30;;;;;;5067929;28;20442;-76
2022/12/26 02:37:16;;;;;;;5.93;3.07;;;11.20;79.30;;;;;;5046320;28;20437;-76
2022/12/26 02:40:22;;;;;;;7.20;3.70;;;11.10;79.30;;;;;;5046560;28;20426;-75
2022/12/26 02:43:03;;;;;;;4.73;3.40;;;11.20;79.30;;;;;;5044633;28;20965;-76
2022/12/26 02:48:53;;;;;;;4.80;3.20;;;11.20;79.20;;;;;;5042785;28;20944;-76
2022/12/26 03:15:09;;;;;;;4.20;2.93;;;11.50;77.80;;;;;;5047237;28;20390;-77
2022/12/26 03:17:37;;;;;;;6.17;3.10;;;11.60;77.80;;;;;;5042143;28;20516;-75
2022/12/26 03:20:10;;;;;;;5.50;3.30;;;11.60;77.80;;;;;;5048054;28;20419;-76
2022/12/26 03:22:47;;;;;;;4.33;2.67;;;11.60;77.70;;;;;;5040472;28;20557;-76
2022/12/26 03:28:10;;;;;;;4.10;2.70;;;11.70;77.60;;;;;;5046111;28;20410;-76
2022/12/26 03:30:49;;;;;;;5.73;3.30;;;11.70;77.60;;;;;;5050267;28;20462;-76
2022/12/26 03:36:34;;;;;;;5.27;2.67;;;11.80;76.80;;;;;;5049755;28;20426;-76
2022/12/26 04:19:22;;;;;;;5.40;3.23;;;11.90;76.80;;;;;;5046800;28;20518;-75
2022/12/26 04:44:10;;;;;;;5.33;2.93;;;12.50;75.10;;;;;;5048392;28;20477;-76
2022/12/26 04:46:47;;;;;;;6.43;3.30;;;12.50;74.90;;;;;;5053446;28;20422;-76
2022/12/26 04:52:02;;;;;;;5.20;2.83;;;12.60;74.60;;;;;;5052102;28;20847;-75
2022/12/26 04:54:27;;;;;;;7.10;3.20;;;12.60;74.50;;;;;;5053842;28;20419;-77
2022/12/26 04:56:53;;;;;;;3.73;2.40;;;12.60;74.20;;;;;;5054092;28;20503;-75
2022/12/26 04:59:20;;;;;;;5.67;3.20;;;12.70;74.00;;;;;;5051338;28;20234;-75
2022/12/26 05:10:01;;;;;;;5.97;2.77;;;12.80;73.50;;;;;;5053884;28;20418;-76
2022/12/26 05:12:26;;;;;;;3.97;2.77;;;12.80;73.60;;;;;;5051979;28;21280;-75
2022/12/26 05:14:53;;;;;;;2.93;2.53;;;12.70;73.70;;;;;;5054281;28;20504;-76
2022/12/26 05:31:04;;;;;;;5.30;2.90;;;12.60;74.30;;;;;;5043415;28;20461;-76
2022/12/26 05:36:16;;;;;;;5.33;2.70;;;12.50;74.80;;;;;;5047141;28;20403;-77
2022/12/26 05:38:42;;;;;;;4.77;2.97;;;12.30;75.10;;;;;;5043130;28;20467;-77
2022/12/26 05:41:07;;;;;;;4.60;3.00;;;12.20;75.40;;;;;;5047823;28;20423;-76
2022/12/26 05:43:33;;;;;;;6.07;3.13;;;12.10;75.80;;;;;;5043640;28;20217;-77
2022/12/26 05:45:58;;;;;;;4.50;3.23;;;12.10;75.90;;;;;;5046899;28;20185;-76
2022/12/26 05:48:24;;;;;;;6.30;3.20;;;12.00;76.10;;;;;;5045934;28;20204;-76
2022/12/26 05:50:50;;;;;;;5.40;2.70;;;12.00;76.20;;;;;;5045950;28;20223;-76
2022/12/26 05:53:15;;;;;;;4.67;3.17;;;12.10;76.20;;;;;;5047177;28;20236;-77
2022/12/26 05:55:41;;;;;;;3.80;3.10;;;12.10;76.10;;;;;;5054019;28;20184;-76
2022/12/26 05:58:07;;;;;;;3.67;2.70;;;12.10;75.90;;;;;;5043657;28;20281;-76
2022/12/26 06:00:32;;;;;;;5.60;3.37;;;12.10;76.10;;;;;;5057225;28;20234;-77
2022/12/26 06:02:59;;;;;;;4.70;2.97;;;12.10;75.90;;;;;;5037021;28;20282;-76
2022/12/26 06:05:25;;;;;;;5.60;3.10;;;12.10;76.10;;;;;;5051024;28;20541;-76
2022/12/26 06:07:50;;;;;;;6.50;3.30;;;12.20;76.10;;;;;;5051964;28;20480;-76
2022/12/26 06:10:16;;;;;;;6.33;3.37;;;12.10;75.90;;;;;;5051073;28;20239;-76
2022/12/26 06:12:42;;;;;;;6.47;3.10;;;12.10;76.10;;;;;;5047481;28;20916;-76
2022/12/26 06:15:08;;;;;;;7.77;2.97;;;12.10;76.10;;;;;;5044746;28;20238;-75
2022/12/26 06:17:33;;;;;;;4.60;2.47;;;12.10;76.20;;;;;;5047592;28;20173;-76
2022/12/26 06:19:59;;;;;;;3.00;2.40;;;12.10;76.10;;;;;;5051647;28;20893;-76
2022/12/26 06:22:27;;;;;;;3.03;2.40;;;12.20;75.50;;;;;;5047234;28;20220;-76
2022/12/26 06:24:52;;;;;;;3.77;2.73;;;12.20;75.40;;;;;;5048344;28;20238;-74
2022/12/26 06:27:18;;;;;;;6.60;2.93;;;12.30;75.20;;;;;;5040142;28;20871;-75
2022/12/26 06:29:44;;;;;;;5.20;3.10;;;12.40;75.10;;;;;;5041482;28;20718;-76
2022/12/26 06:32:09;;;;;;;4.47;2.67;;;12.40;75.10;;;;;;5047999;28;20617;-75
2022/12/26 06:34:35;;;;;;;4.87;2.57;;;12.30;75.10;;;;;;5044261;28;20425;-75
2022/12/26 06:37:00;;;;;;;5.27;2.63;;;12.40;75.20;;;;;;5040678;28;20268;-76
2022/12/26 06:39:26;;;;;;;4.17;2.80;;;12.50;74.80;;;;;;5039032;28;20180;-77
2022/12/26 06:41:51;;;;;;;5.40;2.80;;;12.60;74.50;;;;;;5036859;28;20192;-76
2022/12/26 06:44:17;;;;;;;4.90;3.10;;;12.70;74.00;;;;;;5040826;28;20200;-77
2022/12/26 06:46:43;;;;;;;2.60;2.43;;;12.80;73.70;;;;;;5041394;28;20195;-75
2022/12/26 06:49:08;;;;;;;5.97;2.77;;;12.90;73.50;;;;;;5036729;28;20251;-76
2022/12/26 06:51:34;;;;;;;4.83;2.87;;;12.90;73.30;;;;;;5045292;28;20303;-75
2022/12/26 06:54:01;;;;;;;4.13;2.47;;;12.90;73.30;;;;;;5044696;28;20209;-76
2022/12/26 06:56:28;;;;;;;4.60;2.80;;;13.00;73.30;;;;;;5047538;28;20177;-76
2022/12/26 06:59:02;;;;;;;4.80;2.70;;;13.00;73.00;;;;;;5049579;28;20423;-76
2022/12/26 07:01:31;;;;;;;4.60;2.27;;;13.00;73.00;;;;;;5052199;28;20415;-75
2022/12/26 07:03:57;;;;;;;3.23;2.50;;;13.00;73.20;;;;;;5043587;28;20463;-76
2022/12/26 07:06:26;;;;;;;4.10;3.07;;;13.00;73.50;;;;;;5043580;28;20428;-76
2022/12/26 07:08:54;;;;;;;3.40;2.50;;;12.90;73.50;;;;;;5038957;28;20437;-76
2022/12/26 07:11:23;;;;;;;6.37;2.70;;;12.80;73.90;;;;;;5044988;28;20527;-75
2022/12/26 07:13:48;;;;;;;3.67;2.60;;;12.70;74.20;;;;;;5047586;28;20446;-76
2022/12/26 07:16:14;;;;;;;5.30;2.87;;;12.70;74.30;;;;;;5053528;28;20435;-75
2022/12/26 07:18:40;;;;;;;8.30;2.80;;;12.60;74.30;;;;;;5059820;28;20192;-76
2022/12/26 07:21:08;;;;;;;4.30;3.10;;;12.60;74.60;;;;;;5053546;28;20196;-76
2022/12/26 07:23:34;;;;;;;4.83;2.73;;;12.50;74.90;;;;;;5055854;28;20208;-76
2022/12/26 07:26:00;;;;;;;4.40;2.93;;;12.50;75.20;;;;;;5041198;28;20432;-74
2022/12/26 07:28:26;;;;;;;5.10;2.97;;;12.50;75.20;;;;;;5040966;28;20188;-75
2022/12/26 07:30:52;;;;;;;5.13;2.90;;;12.40;75.50;;;;;;5038573;28;20220;-76
2022/12/26 07:33:17;;;;;;;6.13;3.30;;;12.50;75.40;;;;;;5039589;28;20455;-75
2022/12/26 07:35:43;;;;;;;4.90;3.13;;;12.40;75.40;;;;;;5041302;28;20193;-74
2022/12/26 07:38:10;;;;;;;3.37;2.80;;;12.40;75.50;;;;;;5038972;28;20259;-75
2022/12/26 07:40:36;;;;;;;3.97;2.80;;;12.40;75.70;;;;;;5038432;28;20508;-75
2022/12/26 07:43:01;;;;;;;7.40;3.20;;;12.40;75.70;;;;;;5036701;28;20566;-74
2022/12/26 07:45:27;;;;;;;5.77;2.90;;;12.30;75.70;;;;;;5036629;28;20188;-75
2022/12/26 07:47:53;;;;;;;3.53;2.80;;;12.40;75.80;;;;;;5042934;28;20279;-76
2022/12/26 07:50:20;;;;;;;4.73;3.17;;;12.40;75.70;;;;;;5036565;28;20652;-75
2022/12/26 07:52:45;;;;;;;3.57;3.00;;;12.40;75.80;;;;;;5042611;28;21081;-75
2022/12/26 07:55:11;;;;;;;6.50;3.27;;;12.40;75.90;;;;;;5035753;28;20426;-75
2022/12/26 07:57:36;;;;;;;6.87;3.27;;;12.40;75.90;;;;;;5042186;28;20184;-75
2022/12/26 08:00:03;;;;;;;4.67;3.30;;;12.40;76.20;;;;;;5036147;28;20276;-74
2022/12/26 08:02:29;;;;;;;5.10;3.10;;;12.30;76.50;;;;;;5043553;28;20218;-75
2022/12/26 08:04:55;;;;;;;4.77;3.30;;;12.20;76.70;;;;;;5040980;28;20934;-76
2022/12/26 08:07:21;;;;;;;4.20;3.00;;;12.10;77.80;;;;;;5043701;28;20200;-75
2022/12/26 08:09:46;;;;;;;4.10;2.93;;;12.00;78.60;;;;;;5037784;28;20196;-75
2022/12/26 08:12:12;;;;;;;6.40;3.00;;;11.90;79.50;;;;;;5041246;28;20478;-75
2022/12/26 08:14:38;;;;;;;9.03;3.60;;;11.90;79.90;;;;;;5048061;28;20246;-75
2022/12/26 08:17:04;;;;;;;7.70;2.90;;;11.80;80.20;;;;;;5045589;28;20192;-76
2022/12/26 08:19:30;;;;;;;5.80;3.47;;;11.90;80.00;;;;;;5041639;28;20426;-76
2022/12/26 08:21:55;;;;;;;5.00;3.10;;;11.90;80.30;;;;;;5038718;28;20193;-75
2022/12/26 08:24:21;;;;;;;3.80;3.10;;;11.90;80.50;;;;;;5038422;28;20197;-75
2022/12/26 08:26:46;;;;;;;5.53;3.30;;;11.90;80.20;;;;;;5041593;28;20185;-76
2022/12/26 08:29:12;;;;;;;6.53;3.40;;;11.90;80.00;;;;;;5036845;28;20189;-75
2022/12/26 08:31:38;;;;;;;7.20;3.70;;;11.90;80.60;;;;;;5042109;28;20288;-74
2022/12/26 08:34:03;;;;;;;7.67;3.90;;;11.90;80.90;;;;;;5045902;28;20208;-76
2022/12/26 08:36:29;;;;;;;6.83;3.57;;;11.90;80.90;;;;;;5043971;28;20195;-76
2022/12/26 08:38:55;;;;;;;5.93;3.60;;;12.00;80.90;;;;;;5042872;28;20192;-75
2022/12/26 08:41:21;;;;;;;5.43;3.60;;;12.00;80.80;;;;;;5043472;28;20185;-76
2022/12/26 08:43:48;;;;;;;7.27;3.60;;;11.90;81.40;;;;;;5040812;28;20462;-76
2022/12/26 08:46:14;;;;;;;6.57;3.80;;;11.90;81.40;;;;;;5042825;28;20283;-76
2022/12/26 08:48:40;;;;;;;6.47;3.40;;;11.80;81.50;;;;;;5043483;28;20550;-75
2022/12/26 08:51:09;;;;;;;5.60;3.70;;;11.90;81.70;;;;;;5042768;28;20462;-76
2022/12/26 08:53:36;;;;;;;5.87;4.27;;;11.90;81.70;;;;;;5042645;28;20459;-76
2022/12/26 08:56:05;;;;;;;6.07;3.50;;;12.00;81.70;;;;;;5045465;28;20882;-76
2022/12/26 08:58:32;;;;;;;8.33;3.40;;;12.00;81.20;;;;;;5048386;28;20564;-75
2022/12/26 09:01:12;;;;;;;7.53;4.20;;;12.00;81.20;;;;;;5050204;28;20419;-74
2022/12/26 09:03:39;;;;;;;5.27;3.70;;;11.90;81.70;;;;;;5043737;28;20455;-76
2022/12/26 09:06:05;;;;;;;6.03;4.07;;;11.80;82.10;;;;;;5038467;28;20417;-74
2022/12/26 09:08:33;;;;;;;6.70;3.80;;;11.80;82.40;;;;;;5039637;28;20901;-75
2022/12/26 09:11:07;;;;;;;4.73;3.13;;;11.90;82.50;;;;;;5034639;28;20501;-74
2022/12/26 09:13:34;;;;;;;5.60;3.50;;;11.90;83.10;;;;;;5042883;28;20450;-74
2022/12/26 09:16:12;;;;;;;6.33;3.70;;;12.00;83.60;;;;;;5042221;28;20422;-75
2022/12/26 09:18:39;;;;;;;9.27;4.90;;;11.90;83.80;;;;;;5042198;28;20415;-75
2022/12/26 09:21:07;;;;;;;7.27;4.50;;;11.70;84.60;;;;;;5042160;28;20455;-75
2022/12/26 09:23:34;;;;;;;8.07;4.03;;;11.60;85.70;;;;;;5040959;28;20830;-75
2022/12/26 09:26:16;;;;;;;6.03;3.90;;;11.50;86.50;;;;;;5043634;28;20414;-76
2022/12/26 09:28:44;;;;;;;6.80;4.40;;;11.50;87.30;;;;;;5042747;28;20440;-77
2022/12/26 09:31:17;;;;;;;6.10;4.37;;;11.40;87.70;;;;;;5039495;28;20471;-76
2022/12/26 09:33:43;;;;;;;6.20;3.73;;;11.40;88.10;;;;;;5043260;28;20815;-77
2022/12/26 09:36:12;;;;;;;9.50;5.97;;;11.40;88.70;;;;;;5047343;28;20459;-76
2022/12/26 09:38:38;;;;;;;9.43;4.40;;;11.40;88.60;;;;;;5041833;28;20430;-77
2022/12/26 09:41:12;;;;;;;10.27;6.00;;;11.40;88.70;;;;;;5046914;28;20788;-79
2022/12/26 09:43:46;;;;;;;6.67;4.13;;;11.40;88.70;;;;;;5043890;28;20585;-77
2022/12/26 09:46:26;;;;;;;9.67;4.27;;;11.40;88.70;;;;;;5041344;28;20993;-77
2022/12/26 09:49:10;;;;;;;9.67;4.67;;;11.40;88.90;;;;;;5040410;28;20797;-77
2022/12/26 09:51:38;;;;;;;6.20;4.20;;;11.40;89.00;;;;;;5036428;28;21045;-78
2022/12/26 09:54:09;;;;;;;9.83;4.20;;;11.40;89.00;;;;;;5042236;28;20970;-77
2022/12/26 09:56:38;;;;;;;14.83;7.60;;;11.40;89.50;;;;;;5036899;28;20420;-77
2022/12/26 09:59:20;;;;;;;9.20;4.87;;;11.30;90.00;;;;;;5040426;28;20431;-78
2022/12/26 10:01:47;;;;;;;11.20;5.77;;;11.20;90.40;;;;;;5043265;28;20484;-78
2022/12/26 10:04:27;;;;;;;9.37;5.00;;;11.20;90.90;;;;;;5046390;28;20489;-77
2022/12/26 10:07:24;;;;;;;9.20;4.80;;;11.10;91.00;;;;;;5041691;28;20439;-78
2022/12/26 10:09:49;;;;;;;8.27;4.10;;;11.10;91.40;;;;;;5039781;28;20427;-78
2022/12/26 10:12:50;;;;;;;10.90;4.90;;;11.00;91.80;;;;;;5044519;28;20477;-78
2022/12/26 10:15:40;;;;;;;6.20;4.40;;;11.00;92.00;;;;;;5007998;28;20186;-78
2022/12/26 10:18:27;;;;;;;11.07;4.40;;;11.00;92.30;;;;;;5008128;28;20440;-77
2022/12/26 10:21:23;;;;;;;8.90;4.97;;;11.00;92.40;;;;;;5006752;28;20818;-78
2022/12/26 10:24:12;;;;;;;9.83;5.60;;;10.90;92.60;;;;;;5006879;28;20473;-77
2022/12/26 10:26:41;;;;;;;7.80;4.50;;;10.90;93.00;;;;;;4996285;28;20437;-78
2022/12/26 10:29:07;;;;;;;14.70;4.70;;;10.80;93.00;;;;;;5006296;28;20870;-78
2022/12/26 10:31:57;;;;;;;11.73;4.60;;;10.80;93.20;;;;;;5000467;28;20592;-79
2022/12/26 10:34:27;;;;;;;8.17;4.50;;;10.90;93.40;;;;;;5007645;28;20196;-77
2022/12/26 10:37:02;;;;;;;5.53;3.90;;;10.80;93.40;;;;;;5010770;28;20508;-80
2022/12/26 10:39:49;;;;;;;8.77;5.10;;;10.80;93.50;;;;;;5008526;28;20416;-77
2022/12/26 10:42:35;;;;;;;7.30;4.70;;;10.80;93.60;;;;;;5009248;28;20456;-79
2022/12/26 10:45:01;;;;;;;6.73;4.47;;;10.80;93.60;;;;;;5002336;28;20569;-80
2022/12/26 10:47:42;;;;;;;6.77;3.97;;;10.80;93.80;;;;;;5006643;28;20940;-78
2022/12/26 10:50:18;;;;;;;6.40;4.27;;;10.80;93.80;;;;;;5029328;28;20871;-78
2022/12/26 10:52:43;;;;;;;5.20;3.17;;;10.70;93.90;;;;;;5071049;28;20526;-80
2022/12/26 10:55:14;;;;;;;5.70;3.30;;;10.70;93.60;;;;;;5040106;28;20542;-81
2022/12/26 10:57:41;;;;;;;4.93;3.37;;;10.70;93.50;;;;;;5048128;28;20189;-80
2022/12/26 11:00:23;;;;;;;4.50;3.10;;;10.70;93.40;;;;;;5035201;28;20426;-79
2022/12/26 11:03:04;;;;;;;8.70;3.60;;;10.70;93.20;;;;;;5042820;28;20450;-81
2022/12/26 11:05:31;;;;;;;6.43;3.40;;;10.70;93.20;;;;;;5043259;28;20793;-81
2022/12/26 11:08:27;;;;;;;5.10;3.43;;;10.70;93.30;;;;;;5039764;28;20428;-79
2022/12/26 11:11:16;;;;;;;4.80;2.60;;;10.70;93.20;;;;;;5040766;28;20454;-78
2022/12/26 11:13:48;;;;;;;5.83;3.10;;;10.70;93.30;;;;;;5047011;28;20450;-79
2022/12/26 11:16:28;;;;;;;4.10;2.90;;;10.80;93.30;;;;;;5041446;28;20472;-78
2022/12/26 11:18:54;;;;;;;3.80;2.70;;;10.80;93.20;;;;;;5047947;28;20414;-79
2022/12/26 11:21:26;;;;;;;5.23;2.97;;;10.80;93.00;;;;;;5039177;28;20544;-78
2022/12/26 11:24:09;;;;;;;5.40;3.10;;;10.80;92.50;;;;;;5033907;28;20547;-79
2022/12/26 11:26:36;;;;;;;13.57;7.03;;;10.80;92.30;;;;;;5043565;28;20439;-78
2022/12/26 11:29:14;;;;;;;3.57;2.40;;;10.80;92.20;;;;;;5042317;28;20439;-78
2022/12/26 11:31:42;;;;;;;4.63;2.27;;;10.80;91.80;;;;;;5038503;28;20961;-79
2022/12/26 11:34:10;;;;;;;2.23;1.77;;;10.90;91.40;;;;;;5041296;28;20672;-78
2022/12/26 11:36:39;;;;;;;4.20;2.50;;;11.00;91.20;;;;;;5033165;28;20434;-78
2022/12/26 11:39:19;;;;;;;4.93;2.70;;;11.00;90.70;;;;;;5033825;28;20454;-78
2022/12/26 11:41:47;;;;;;;3.00;1.87;;;11.10;90.20;;;;;;5039069;28;20438;-77
2022/12/26 11:44:13;;;;;;;2.50;1.80;;;11.10;89.30;;;;;;5038070;28;20459;-78
2022/12/26 11:47:08;;;;;;;3.33;1.80;;;11.10;89.20;;;;;;5046060;28;20504;-79
2022/12/26 11:49:37;;;;;;;3.90;2.20;;;11.10;88.90;;;;;;5040175;28;20694;-79
2022/12/26 11:52:41;;;;;;;4.07;1.77;;;11.10;89.00;;;;;;5042157;28;20545;-77
2022/12/26 11:55:21;;;;;;;2.63;1.93;;;11.20;89.00;;;;;;5039213;28;20821;-78
2022/12/26 11:58:08;;;;;;;2.13;1.43;;;11.20;89.00;;;;;;5034279;28;20477;-79
2022/12/26 12:00:50;;;;;;;1.80;1.40;;;11.20;88.70;;;;;;5043471;28;20423;-77
2022/12/26 12:03:27;;;;;;;2.87;1.57;;;11.20;88.30;;;;;;5042700;28;20459;-77
2022/12/26 12:06:17;;;;;;;4.00;1.47;;;11.20;87.30;;;;;;5040635;28;20473;-77
2022/12/26 12:09:14;;;;;;;1.60;1.40;;;11.20;86.90;;;;;;5043706;28;20465;-77
2022/12/26 12:12:03;;;;;;;3.47;1.77;;;11.30;86.50;;;;;;5034464;28;20970;-77
2022/12/26 12:14:36;;;;;;;2.77;1.93;;;11.40;86.20;;;;;;5038788;28;21012;-76
2022/12/26 12:17:23;;;;;;;3.13;1.70;;;11.40;86.00;;;;;;5042572;28;20937;-77
2022/12/26 12:20:04;;;;;;;2.33;1.20;;;11.60;86.00;;;;;;5041243;28;20419;-76
2022/12/26 12:22:44;;;;;;;2.60;1.60;;;11.60;85.30;;;;;;5035479;28;20470;-77
2022/12/26 12:25:39;;;;;;;2.60;1.27;;;11.60;85.50;;;;;;5042331;28;20484;-76
2022/12/26 12:28:43;;;;;;;3.70;1.60;;;11.60;85.30;;;;;;5045573;28;20511;-77
2022/12/26 12:31:19;;;;;;;3.33;1.80;;;11.60;85.00;;;;;;5041505;28;20470;-77
2022/12/26 12:33:59;;;;;;;2.90;1.53;;;11.70;85.20;;;;;;5046219;28;20459;-76
2022/12/26 12:36:54;;;;;;;2.20;1.60;;;11.80;85.50;;;;;;5047154;28;20423;-76
2022/12/26 12:39:43;;;;;;;2.37;1.87;;;11.70;85.60;;;;;;5040820;28;21186;-77
2022/12/26 12:42:38;;;;;;;2.50;1.70;;;11.70;86.00;;;;;;5019302;28;20427;-77
2022/12/26 12:45:32;;;;;;;3.23;1.67;;;11.70;86.50;;;;;;5038687;28;20539;-75
2022/12/26 12:48:30;;;;;;;3.27;1.90;;;11.70;86.50;;;;;;5035766;28;20443;-76
2022/12/26 12:51:14;;;;;;;1.30;1.30;;;11.70;86.60;;;;;;5036692;28;21287;-77
2022/12/26 12:54:01;;;;;;;2.60;1.60;;;11.60;86.60;;;;;;5043811;28;21203;-77
2022/12/26 12:56:47;;;;;;;2.10;1.40;;;11.60;86.50;;;;;;5037345;28;20905;-77
2022/12/26 12:59:19;;;;;;;2.93;1.60;;;11.60;86.00;;;;;;5023670;28;20781;-78
2022/12/26 13:01:48;;;;;;;1.70;1.40;;;11.60;85.00;;;;;;5039633;28;20472;-76
2022/12/26 13:04:23;;;;;;;3.33;1.47;;;11.60;85.50;;;;;;5039719;28;20470;-76
2022/12/26 13:06:57;;;;;;;4.07;1.50;;;11.60;85.20;;;;;;5044485;28;20903;-76
2022/12/26 13:10:10;;;;;;;2.13;1.33;;;11.60;85.30;;;;;;5039444;28;20419;-77
2022/12/26 13:12:39;;;;;;;1.67;1.30;;;11.60;85.30;;;;;;4946819;28;20998;-77
2022/12/26 13:15:29;;;;;;;1.37;1.23;;;11.60;84.70;;;;;;4948935;28;20446;-77
2022/12/26 13:18:17;;;;;;;1.60;1.20;;;11.60;84.90;;;;;;4946782;28;20435;-76
2022/12/26 13:20:48;;;;;;;1.67;1.20;;;11.70;84.70;;;;;;4949105;28;20519;-77
2022/12/26 13:26:37;;;;;;;1.47;1.40;;;11.60;84.40;;;;;;4948032;29;20503;-77
2022/12/26 13:29:19;;;;;;;1.50;1.10;;;11.60;84.10;;;;;;4949108;28;20431;-76
2022/12/26 13:31:45;;;;;;;2.27;1.20;;;11.60;83.40;;;;;;4948072;28;20483;-75
2022/12/26 13:34:18;;;;;;;3.17;1.10;;;11.60;83.30;;;;;;4929075;29;20546;-77
2022/12/26 13:36:51;;;;;;;3.27;1.33;;;11.60;83.70;;;;;;4948611;29;20423;-76
2022/12/26 13:39:25;;;;;;;1.40;1.10;;;11.60;83.80;;;;;;4945287;28;20505;-77
2022/12/26 13:44:48;;;;;;;1.40;1.03;;;11.70;83.70;;;;;;4952657;29;20767;-77
2022/12/26 13:47:34;;;;;;;1.50;1.30;;;11.60;83.70;;;;;;5023317;28;21246;-77
2022/12/26 13:50:47;;;;;;;2.03;1.60;;;11.60;84.00;;;;;;5034726;28;20505;-76
2022/12/26 13:53:28;;;;;;;1.40;0.90;;;11.60;84.30;;;;;;5033970;28;20567;-77
2022/12/26 13:56:03;;;;;;;2.27;1.30;;;11.60;84.40;;;;;;5037245;28;20527;-77
2022/12/26 13:58:53;;;;;;;2.53;1.40;;;11.60;84.70;;;;;;5038107;28;20407;-77
2022/12/26 14:01:33;;;;;;;1.73;1.37;;;11.60;84.90;;;;;;5038080;28;20521;-76
2022/12/26 14:04:17;;;;;;;3.77;2.27;;;11.60;85.00;;;;;;5032762;28;20457;-76
2022/12/26 14:06:58;;;;;;;3.27;1.90;;;11.50;85.20;;;;;;5037610;28;20434;-76
2022/12/26 14:09:35;;;;;;;3.03;1.43;;;11.60;85.60;;;;;;5037446;28;20420;-78
2022/12/26 14:12:20;;;;;;;2.50;1.60;;;11.60;85.70;;;;;;5037509;28;20506;-77
2022/12/26 14:15:04;;;;;;;1.93;1.47;;;11.60;85.70;;;;;;5040442;28;20514;-76
2022/12/26 14:17:48;;;;;;;2.33;1.40;;;11.60;86.00;;;;;;5038964;28;20773;-76
2022/12/26 14:20:46;;;;;;;2.60;1.63;;;11.50;86.20;;;;;;5041791;28;20480;-77
2022/12/26 14:23:36;;;;;;;3.07;1.47;;;11.50;86.30;;;;;;5003667;28;20504;-76
2022/12/26 14:26:24;;;;;;;1.87;1.40;;;11.40;86.50;;;;;;5037987;28;20439;-77
2022/12/26 14:29:04;;;;;;;2.10;1.50;;;11.40;86.80;;;;;;5041895;28;20423;-77
2022/12/26 14:31:39;;;;;;;2.40;1.30;;;11.40;86.90;;;;;;5039918;28;20477;-76
2022/12/26 14:34:48;;;;;;;4.40;1.77;;;11.40;86.90;;;;;;5044290;28;20535;-76
2022/12/26 14:37:42;;;;;;;2.50;1.57;;;11.40;86.90;;;;;;5035843;28;20943;-76
2022/12/26 14:40:07;;;;;;;2.73;1.50;;;11.40;86.90;;;;;;5032991;28;20431;-77
2022/12/26 14:43:12;;;;;;;4.20;2.10;;;11.40;87.30;;;;;;5044829;28;20458;-77
2022/12/26 14:45:51;;;;;;;1.93;1.73;;;11.40;87.40;;;;;;5041420;28;20193;-77
2022/12/26 14:48:17;;;;;;;2.13;1.60;;;11.40;87.60;;;;;;5045911;28;20529;-77
2022/12/26 14:51:01;;;;;;;3.37;1.60;;;11.50;87.10;;;;;;5036837;28;20990;-78
2022/12/26 14:53:31;;;;;;;3.97;1.70;;;11.50;87.10;;;;;;5029281;28;20733;-76
2022/12/26 14:56:07;;;;;;;2.30;1.63;;;11.50;87.10;;;;;;5037583;28;20800;-77
2022/12/26 14:58:44;;;;;;;3.50;1.80;;;11.40;86.90;;;;;;5033580;28;20426;-76
2022/12/26 15:01:19;;;;;;;1.67;1.47;;;11.40;87.10;;;;;;5037567;28;20957;-77
2022/12/26 15:03:50;;;;;;;2.97;2.00;;;11.40;87.10;;;;;;5042596;28;20470;-75
2022/12/26 15:06:18;;;;;;;1.70;1.40;;;11.40;86.90;;;;;;5036729;28;20432;-76
2022/12/26 15:09:02;;;;;;;1.50;1.40;;;11.30;86.90;;;;;;5043150;28;20435;-75
2022/12/26 15:11:43;;;;;;;2.90;1.60;;;11.30;87.10;;;;;;5036421;28;20551;-78
2022/12/26 15:14:31;;;;;;;2.90;1.73;;;11.20;87.10;;;;;;5043467;28;20474;-76
2022/12/26 15:17:11;;;;;;;3.37;1.80;;;11.20;87.40;;;;;;5038263;28;20445;-76
2022/12/26 15:20:13;;;;;;;2.27;1.40;;;11.20;87.30;;;;;;5036412;28;20464;-76
2022/12/26 15:23:19;;;;;;;2.30;1.40;;;11.20;87.30;;;;;;5032329;28;20987;-76
2022/12/26 15:25:57;;;;;;;3.17;1.80;;;11.10;87.30;;;;;;4989192;28;20431;-75
2022/12/26 15:28:50;;;;;;;2.27;1.47;;;11.10;87.40;;;;;;5040414;28;20423;-77
2022/12/26 15:31:27;;;;;;;4.80;2.00;;;11.10;87.40;;;;;;5037923;28;20550;-76